Terminal Aerodrome Forecast
Issued by NWS Sioux Falls, SD

Home | Current Version | Previous Version | Graphics & Text | Print | Product List | Glossary Off
Versions: 1 2 3 4 5 6 7 8 9 10 11 12 13 14 15 16

000
FTUS43 KFSD 121120
TAFFSD
TAF
KFSD 121120Z 1212/1312 28005KT P6SM BKN035
     FM121900 24007KT P6SM SCT250
     FM130800 27008KT P6SM SCT250
     FM131000 29012KT P6SM BKN250=

USA.gov is the U.S. government's official web portal to all federal, state and local government web resources and services.